sensor_id;sensor_type;location;lat;lon;timestamp;P1;durP1;ratioP1;P2;durP2;ratioP2
20734;SDS011;10528;52.124;5.196;2023-08-24T00:02:00;5.53;;;2.92;;
20734;SDS011;10528;52.124;5.196;2023-08-24T00:04:28;4.80;;;2.75;;
20734;SDS011;10528;52.124;5.196;2023-08-24T00:06:55;5.53;;;2.33;;
20734;SDS011;10528;52.124;5.196;2023-08-24T00:09:22;6.20;;;2.78;;
20734;SDS011;10528;52.124;5.196;2023-08-24T00:11:49;4.28;;;2.35;;
20734;SDS011;10528;52.124;5.196;2023-08-24T00:14:16;4.13;;;2.00;;
20734;SDS011;10528;52.124;5.196;2023-08-24T00:16:43;4.32;;;2.67;;
20734;SDS011;10528;52.124;5.196;2023-08-24T00:19:10;6.00;;;2.47;;
20734;SDS011;10528;52.124;5.196;2023-08-24T00:21:37;3.88;;;2.50;;
20734;SDS011;10528;52.124;5.196;2023-08-24T00:24:04;5.75;;;2.60;;
20734;SDS011;10528;52.124;5.196;2023-08-24T00:26:31;5.85;;;2.80;;
20734;SDS011;10528;52.124;5.196;2023-08-24T00:28:58;4.90;;;2.55;;
20734;SDS011;10528;52.124;5.196;2023-08-24T00:31:25;4.85;;;2.40;;
20734;SDS011;10528;52.124;5.196;2023-08-24T00:33:52;6.88;;;3.00;;
20734;SDS011;10528;52.124;5.196;2023-08-24T00:36:19;5.18;;;2.75;;
20734;SDS011;10528;52.124;5.196;2023-08-24T00:38:49;3.67;;;2.42;;
20734;SDS011;10528;52.124;5.196;2023-08-24T00:41:17;5.63;;;2.70;;
20734;SDS011;10528;52.124;5.196;2023-08-24T00:43:45;4.55;;;2.50;;
20734;SDS011;10528;52.124;5.196;2023-08-24T00:46:12;3.60;;;2.40;;
20734;SDS011;10528;52.124;5.196;2023-08-24T00:48:39;5.15;;;2.83;;
20734;SDS011;10528;52.124;5.196;2023-08-24T00:51:07;5.65;;;2.72;;
20734;SDS011;10528;52.124;5.196;2023-08-24T00:53:34;6.78;;;2.70;;
20734;SDS011;10528;52.124;5.196;2023-08-24T00:56:05;6.35;;;2.30;;
20734;SDS011;10528;52.124;5.196;2023-08-24T00:58:32;7.35;;;2.60;;
20734;SDS011;10528;52.124;5.196;2023-08-24T01:01:00;5.70;;;3.00;;
20734;SDS011;10528;52.124;5.196;2023-08-24T01:03:28;5.15;;;2.40;;
20734;SDS011;10528;52.124;5.196;2023-08-24T01:05:55;6.25;;;2.75;;
20734;SDS011;10528;52.124;5.196;2023-08-24T01:08:22;5.43;;;2.47;;
20734;SDS011;10528;52.124;5.196;2023-08-24T01:16:46;4.07;;;2.20;;
20734;SDS011;10528;52.124;5.196;2023-08-24T01:19:21;5.05;;;2.10;;
20734;SDS011;10528;52.124;5.196;2023-08-24T01:22:05;5.00;;;2.25;;
20734;SDS011;10528;52.124;5.196;2023-08-24T01:27:58;4.47;;;2.22;;
20734;SDS011;10528;52.124;5.196;2023-08-24T01:30:28;5.75;;;2.58;;
20734;SDS011;10528;52.124;5.196;2023-08-24T01:32:57;5.22;;;2.40;;
20734;SDS011;10528;52.124;5.196;2023-08-24T01:35:25;5.00;;;2.15;;
20734;SDS011;10528;52.124;5.196;2023-08-24T01:37:52;3.75;;;2.08;;
20734;SDS011;10528;52.124;5.196;2023-08-24T01:40:23;5.95;;;2.30;;
20734;SDS011;10528;52.124;5.196;2023-08-24T01:43:07;4.30;;;1.80;;
20734;SDS011;10528;52.124;5.196;2023-08-24T01:45:36;4.28;;;2.10;;
20734;SDS011;10528;52.124;5.196;2023-08-24T01:48:07;4.28;;;2.00;;
20734;SDS011;10528;52.124;5.196;2023-08-24T01:50:37;3.90;;;1.95;;
20734;SDS011;10528;52.124;5.196;2023-08-24T01:53:05;2.65;;;2.00;;
20734;SDS011;10528;52.124;5.196;2023-08-24T01:55:32;3.13;;;2.00;;
20734;SDS011;10528;52.124;5.196;2023-08-24T01:57:59;4.88;;;1.90;;
20734;SDS011;10528;52.124;5.196;2023-08-24T02:00:27;4.32;;;2.58;;
20734;SDS011;10528;52.124;5.196;2023-08-24T02:02:54;4.80;;;2.80;;
20734;SDS011;10528;52.124;5.196;2023-08-24T02:05:22;5.18;;;2.72;;
20734;SDS011;10528;52.124;5.196;2023-08-24T02:07:50;4.85;;;2.50;;
20734;SDS011;10528;52.124;5.196;2023-08-24T02:10:18;5.32;;;3.08;;
20734;SDS011;10528;52.124;5.196;2023-08-24T02:12:44;6.07;;;2.92;;
20734;SDS011;10528;52.124;5.196;2023-08-24T02:15:11;5.13;;;3.05;;
20734;SDS011;10528;52.124;5.196;2023-08-24T02:17:38;7.13;;;4.82;;
20734;SDS011;10528;52.124;5.196;2023-08-24T02:20:05;6.45;;;3.75;;
20734;SDS011;10528;52.124;5.196;2023-08-24T02:22:34;8.25;;;3.72;;
20734;SDS011;10528;52.124;5.196;2023-08-24T02:25:01;6.47;;;3.67;;
20734;SDS011;10528;52.124;5.196;2023-08-24T02:27:31;7.32;;;4.10;;
20734;SDS011;10528;52.124;5.196;2023-08-24T02:29:59;5.78;;;4.00;;
20734;SDS011;10528;52.124;5.196;2023-08-24T02:32:26;6.60;;;4.10;;
20734;SDS011;10528;52.124;5.196;2023-08-24T02:34:53;7.10;;;4.18;;
20734;SDS011;10528;52.124;5.196;2023-08-24T02:37:20;8.50;;;4.50;;
20734;SDS011;10528;52.124;5.196;2023-08-24T02:39:47;5.68;;;4.30;;
20734;SDS011;10528;52.124;5.196;2023-08-24T02:42:15;7.78;;;4.13;;
20734;SDS011;10528;52.124;5.196;2023-08-24T02:44:42;6.43;;;4.40;;
20734;SDS011;10528;52.124;5.196;2023-08-24T02:47:10;8.25;;;4.88;;
20734;SDS011;10528;52.124;5.196;2023-08-24T02:49:37;6.28;;;4.55;;
20734;SDS011;10528;52.124;5.196;2023-08-24T02:52:05;5.65;;;4.30;;
20734;SDS011;10528;52.124;5.196;2023-08-24T02:54:31;6.28;;;4.60;;
20734;SDS011;10528;52.124;5.196;2023-08-24T02:56:59;10.23;;;4.95;;
20734;SDS011;10528;52.124;5.196;2023-08-24T02:59:26;7.50;;;4.40;;
20734;SDS011;10528;52.124;5.196;2023-08-24T03:01:53;10.00;;;4.97;;
20734;SDS011;10528;52.124;5.196;2023-08-24T03:04:20;6.45;;;4.57;;
20734;SDS011;10528;52.124;5.196;2023-08-24T03:06:51;6.07;;;4.50;;
20734;SDS011;10528;52.124;5.196;2023-08-24T03:09:18;7.90;;;5.35;;
20734;SDS011;10528;52.124;5.196;2023-08-24T03:11:45;6.60;;;4.97;;
20734;SDS011;10528;52.124;5.196;2023-08-24T03:14:12;7.38;;;5.20;;
20734;SDS011;10528;52.124;5.196;2023-08-24T03:16:39;7.10;;;4.65;;
20734;SDS011;10528;52.124;5.196;2023-08-24T03:19:06;7.50;;;4.80;;
20734;SDS011;10528;52.124;5.196;2023-08-24T03:21:33;6.82;;;4.95;;
20734;SDS011;10528;52.124;5.196;2023-08-24T03:24:00;7.82;;;4.32;;
20734;SDS011;10528;52.124;5.196;2023-08-24T03:26:29;5.85;;;4.55;;
20734;SDS011;10528;52.124;5.196;2023-08-24T03:28:56;8.18;;;5.32;;
20734;SDS011;10528;52.124;5.196;2023-08-24T03:31:23;6.90;;;5.40;;
20734;SDS011;10528;52.124;5.196;2023-08-24T03:33:53;7.80;;;5.82;;
20734;SDS011;10528;52.124;5.196;2023-08-24T03:36:20;8.30;;;4.97;;
20734;SDS011;10528;52.124;5.196;2023-08-24T03:38:47;8.35;;;5.32;;
20734;SDS011;10528;52.124;5.196;2023-08-24T03:41:14;7.38;;;5.20;;
20734;SDS011;10528;52.124;5.196;2023-08-24T03:43:41;9.45;;;5.35;;
20734;SDS011;10528;52.124;5.196;2023-08-24T03:46:09;10.10;;;5.57;;
20734;SDS011;10528;52.124;5.196;2023-08-24T03:48:39;8.63;;;5.75;;
20734;SDS011;10528;52.124;5.196;2023-08-24T03:51:06;7.88;;;5.55;;
20734;SDS011;10528;52.124;5.196;2023-08-24T03:53:35;7.50;;;6.03;;
20734;SDS011;10528;52.124;5.196;2023-08-24T03:56:02;9.48;;;6.10;;
20734;SDS011;10528;52.124;5.196;2023-08-24T03:58:30;8.65;;;6.20;;
20734;SDS011;10528;52.124;5.196;2023-08-24T04:00:58;10.75;;;6.55;;
20734;SDS011;10528;52.124;5.196;2023-08-24T04:03:25;6.63;;;5.72;;
20734;SDS011;10528;52.124;5.196;2023-08-24T04:05:52;8.25;;;6.32;;
20734;SDS011;10528;52.124;5.196;2023-08-24T04:08:20;11.35;;;6.38;;
20734;SDS011;10528;52.124;5.196;2023-08-24T04:10:48;8.15;;;6.40;;
20734;SDS011;10528;52.124;5.196;2023-08-24T04:13:16;10.32;;;6.82;;
20734;SDS011;10528;52.124;5.196;2023-08-24T04:15:43;9.05;;;6.65;;
20734;SDS011;10528;52.124;5.196;2023-08-24T04:18:10;8.57;;;6.18;;
20734;SDS011;10528;52.124;5.196;2023-08-24T04:20:37;9.48;;;6.28;;
20734;SDS011;10528;52.124;5.196;2023-08-24T04:23:04;10.82;;;7.45;;
20734;SDS011;10528;52.124;5.196;2023-08-24T04:25:33;9.82;;;6.07;;
20734;SDS011;10528;52.124;5.196;2023-08-24T04:28:00;7.72;;;6.05;;
20734;SDS011;10528;52.124;5.196;2023-08-24T04:30:27;8.48;;;6.30;;
20734;SDS011;10528;52.124;5.196;2023-08-24T04:32:54;8.55;;;6.28;;
20734;SDS011;10528;52.124;5.196;2023-08-24T04:35:21;8.25;;;6.50;;
20734;SDS011;10528;52.124;5.196;2023-08-24T04:37:47;8.65;;;5.60;;
20734;SDS011;10528;52.124;5.196;2023-08-24T04:40:15;10.02;;;6.25;;
20734;SDS011;10528;52.124;5.196;2023-08-24T04:42:42;8.13;;;6.00;;
20734;SDS011;10528;52.124;5.196;2023-08-24T04:45:09;9.48;;;6.00;;
20734;SDS011;10528;52.124;5.196;2023-08-24T04:47:36;8.18;;;6.03;;
20734;SDS011;10528;52.124;5.196;2023-08-24T04:50:03;8.45;;;5.90;;
20734;SDS011;10528;52.124;5.196;2023-08-24T04:52:31;8.02;;;5.85;;
20734;SDS011;10528;52.124;5.196;2023-08-24T04:54:58;8.23;;;5.68;;
20734;SDS011;10528;52.124;5.196;2023-08-24T04:57:25;9.15;;;6.10;;
20734;SDS011;10528;52.124;5.196;2023-08-24T04:59:52;8.07;;;6.00;;
20734;SDS011;10528;52.124;5.196;2023-08-24T05:02:19;10.85;;;6.30;;
20734;SDS011;10528;52.124;5.196;2023-08-24T05:04:46;8.20;;;6.00;;
20734;SDS011;10528;52.124;5.196;2023-08-24T05:07:15;9.15;;;6.22;;
20734;SDS011;10528;52.124;5.196;2023-08-24T05:09:41;7.40;;;5.93;;
20734;SDS011;10528;52.124;5.196;2023-08-24T05:12:08;8.27;;;6.15;;
20734;SDS011;10528;52.124;5.196;2023-08-24T05:14:35;8.75;;;6.47;;
20734;SDS011;10528;52.124;5.196;2023-08-24T05:17:02;8.98;;;6.82;;
20734;SDS011;10528;52.124;5.196;2023-08-24T05:19:31;10.13;;;6.63;;
20734;SDS011;10528;52.124;5.196;2023-08-24T05:21:58;9.27;;;6.63;;
20734;SDS011;10528;52.124;5.196;2023-08-24T05:24:25;10.93;;;7.43;;
20734;SDS011;10528;52.124;5.196;2023-08-24T05:26:52;9.45;;;6.93;;
20734;SDS011;10528;52.124;5.196;2023-08-24T05:29:19;11.52;;;8.23;;
20734;SDS011;10528;52.124;5.196;2023-08-24T05:31:45;10.65;;;7.72;;
20734;SDS011;10528;52.124;5.196;2023-08-24T05:34:12;10.50;;;7.40;;
20734;SDS011;10528;52.124;5.196;2023-08-24T05:36:40;10.73;;;7.03;;
20734;SDS011;10528;52.124;5.196;2023-08-24T05:39:06;13.57;;;7.93;;
20734;SDS011;10528;52.124;5.196;2023-08-24T05:41:34;10.88;;;7.95;;
20734;SDS011;10528;52.124;5.196;2023-08-24T05:44:03;10.43;;;7.70;;
20734;SDS011;10528;52.124;5.196;2023-08-24T05:46:30;9.82;;;7.30;;
20734;SDS011;10528;52.124;5.196;2023-08-24T05:48:57;9.10;;;7.13;;
20734;SDS011;10528;52.124;5.196;2023-08-24T05:51:26;13.50;;;7.50;;
20734;SDS011;10528;52.124;5.196;2023-08-24T05:53:53;10.23;;;7.38;;
20734;SDS011;10528;52.124;5.196;2023-08-24T05:56:22;10.43;;;7.88;;
20734;SDS011;10528;52.124;5.196;2023-08-24T05:58:49;12.45;;;8.00;;
20734;SDS011;10528;52.124;5.196;2023-08-24T06:01:16;9.65;;;7.38;;
20734;SDS011;10528;52.124;5.196;2023-08-24T06:03:43;10.90;;;7.30;;
20734;SDS011;10528;52.124;5.196;2023-08-24T06:06:10;11.18;;;7.25;;
20734;SDS011;10528;52.124;5.196;2023-08-24T06:08:37;11.52;;;7.18;;
20734;SDS011;10528;52.124;5.196;2023-08-24T06:11:04;14.60;;;6.88;;
20734;SDS011;10528;52.124;5.196;2023-08-24T06:13:31;10.50;;;7.03;;
20734;SDS011;10528;52.124;5.196;2023-08-24T06:15:59;11.63;;;6.63;;
20734;SDS011;10528;52.124;5.196;2023-08-24T06:18:26;10.38;;;6.55;;
20734;SDS011;10528;52.124;5.196;2023-08-24T06:20:53;10.20;;;6.82;;
20734;SDS011;10528;52.124;5.196;2023-08-24T06:23:20;9.77;;;7.32;;
20734;SDS011;10528;52.124;5.196;2023-08-24T06:25:48;10.38;;;6.60;;
20734;SDS011;10528;52.124;5.196;2023-08-24T06:28:16;10.38;;;7.30;;
20734;SDS011;10528;52.124;5.196;2023-08-24T06:30:42;11.20;;;7.35;;
20734;SDS011;10528;52.124;5.196;2023-08-24T06:33:10;9.52;;;6.65;;
20734;SDS011;10528;52.124;5.196;2023-08-24T06:35:37;12.90;;;7.50;;
20734;SDS011;10528;52.124;5.196;2023-08-24T06:38:05;9.55;;;6.63;;
20734;SDS011;10528;52.124;5.196;2023-08-24T06:40:32;11.88;;;7.15;;
20734;SDS011;10528;52.124;5.196;2023-08-24T06:42:59;13.32;;;7.57;;
20734;SDS011;10528;52.124;5.196;2023-08-24T06:45:26;11.18;;;7.65;;
20734;SDS011;10528;52.124;5.196;2023-08-24T06:47:53;10.85;;;7.10;;
20734;SDS011;10528;52.124;5.196;2023-08-24T06:50:20;10.70;;;7.28;;
20734;SDS011;10528;52.124;5.196;2023-08-24T06:52:47;10.35;;;7.72;;
20734;SDS011;10528;52.124;5.196;2023-08-24T06:55:15;9.50;;;7.70;;
20734;SDS011;10528;52.124;5.196;2023-08-24T06:57:42;10.05;;;7.03;;
20734;SDS011;10528;52.124;5.196;2023-08-24T07:00:15;14.98;;;7.93;;
20734;SDS011;10528;52.124;5.196;2023-08-24T07:02:43;11.40;;;7.35;;
20734;SDS011;10528;52.124;5.196;2023-08-24T07:05:10;11.40;;;6.93;;
20734;SDS011;10528;52.124;5.196;2023-08-24T07:07:38;11.20;;;7.30;;
20734;SDS011;10528;52.124;5.196;2023-08-24T07:10:06;16.10;;;7.43;;
20734;SDS011;10528;52.124;5.196;2023-08-24T07:12:34;12.20;;;7.05;;
20734;SDS011;10528;52.124;5.196;2023-08-24T07:15:01;11.10;;;7.47;;
20734;SDS011;10528;52.124;5.196;2023-08-24T07:17:29;9.90;;;6.60;;
20734;SDS011;10528;52.124;5.196;2023-08-24T07:19:56;11.65;;;7.20;;
20734;SDS011;10528;52.124;5.196;2023-08-24T07:22:23;10.60;;;7.20;;
20734;SDS011;10528;52.124;5.196;2023-08-24T07:24:52;9.48;;;7.25;;
20734;SDS011;10528;52.124;5.196;2023-08-24T07:27:20;15.20;;;7.03;;
20734;SDS011;10528;52.124;5.196;2023-08-24T07:29:47;11.32;;;6.95;;
20734;SDS011;10528;52.124;5.196;2023-08-24T07:32:14;14.27;;;6.93;;
20734;SDS011;10528;52.124;5.196;2023-08-24T07:34:42;13.25;;;6.70;;
20734;SDS011;10528;52.124;5.196;2023-08-24T07:37:09;12.68;;;6.60;;
20734;SDS011;10528;52.124;5.196;2023-08-24T07:39:37;10.27;;;6.10;;
20734;SDS011;10528;52.124;5.196;2023-08-24T07:42:04;8.15;;;5.68;;
20734;SDS011;10528;52.124;5.196;2023-08-24T07:44:31;10.48;;;6.55;;
20734;SDS011;10528;52.124;5.196;2023-08-24T07:46:58;9.95;;;6.90;;
20734;SDS011;10528;52.124;5.196;2023-08-24T07:49:25;9.60;;;6.40;;
20734;SDS011;10528;52.124;5.196;2023-08-24T07:51:52;10.43;;;5.90;;
20734;SDS011;10528;52.124;5.196;2023-08-24T07:54:19;8.95;;;5.57;;
20734;SDS011;10528;52.124;5.196;2023-08-24T07:56:46;9.38;;;6.18;;
20734;SDS011;10528;52.124;5.196;2023-08-24T07:59:13;6.82;;;4.85;;
20734;SDS011;10528;52.124;5.196;2023-08-24T08:01:40;7.85;;;5.72;;
20734;SDS011;10528;52.124;5.196;2023-08-24T08:04:07;11.05;;;5.82;;
20734;SDS011;10528;52.124;5.196;2023-08-24T08:06:34;10.00;;;5.05;;
20734;SDS011;10528;52.124;5.196;2023-08-24T08:09:01;7.97;;;5.45;;
20734;SDS011;10528;52.124;5.196;2023-08-24T08:11:28;7.50;;;4.50;;
20734;SDS011;10528;52.124;5.196;2023-08-24T08:13:57;7.35;;;5.32;;
20734;SDS011;10528;52.124;5.196;2023-08-24T08:16:23;7.78;;;4.55;;
20734;SDS011;10528;52.124;5.196;2023-08-24T08:18:51;6.78;;;4.68;;
20734;SDS011;10528;52.124;5.196;2023-08-24T08:21:18;11.13;;;4.60;;
20734;SDS011;10528;52.124;5.196;2023-08-24T08:23:47;8.30;;;4.65;;
20734;SDS011;10528;52.124;5.196;2023-08-24T08:26:15;6.68;;;4.40;;
20734;SDS011;10528;52.124;5.196;2023-08-24T08:28:43;7.35;;;4.80;;
20734;SDS011;10528;52.124;5.196;2023-08-24T08:31:10;8.85;;;4.78;;
20734;SDS011;10528;52.124;5.196;2023-08-24T08:33:37;15.18;;;4.97;;
20734;SDS011;10528;52.124;5.196;2023-08-24T08:36:04;8.65;;;4.30;;
20734;SDS011;10528;52.124;5.196;2023-08-24T08:38:31;7.57;;;4.47;;
20734;SDS011;10528;52.124;5.196;2023-08-24T08:41:02;8.23;;;3.63;;
20734;SDS011;10528;52.124;5.196;2023-08-24T08:43:31;7.90;;;4.07;;
20734;SDS011;10528;52.124;5.196;2023-08-24T08:45:58;6.53;;;3.42;;
20734;SDS011;10528;52.124;5.196;2023-08-24T08:48:27;7.82;;;4.05;;
20734;SDS011;10528;52.124;5.196;2023-08-24T08:50:57;7.03;;;3.70;;
20734;SDS011;10528;52.124;5.196;2023-08-24T08:53:24;6.85;;;3.58;;
20734;SDS011;10528;52.124;5.196;2023-08-24T08:55:52;7.10;;;3.53;;
20734;SDS011;10528;52.124;5.196;2023-08-24T08:58:21;4.68;;;3.05;;
20734;SDS011;10528;52.124;5.196;2023-08-24T09:00:49;6.25;;;3.95;;
20734;SDS011;10528;52.124;5.196;2023-08-24T09:03:17;8.80;;;3.53;;
20734;SDS011;10528;52.124;5.196;2023-08-24T09:05:48;7.25;;;4.07;;
20734;SDS011;10528;52.124;5.196;2023-08-24T09:08:18;7.75;;;4.68;;
20734;SDS011;10528;52.124;5.196;2023-08-24T09:10:46;9.25;;;5.40;;
20734;SDS011;10528;52.124;5.196;2023-08-24T09:13:13;6.10;;;4.30;;
20734;SDS011;10528;52.124;5.196;2023-08-24T09:15:40;10.15;;;4.47;;
20734;SDS011;10528;52.124;5.196;2023-08-24T09:18:07;7.88;;;3.75;;
20734;SDS011;10528;52.124;5.196;2023-08-24T09:20:35;5.93;;;3.67;;
20734;SDS011;10528;52.124;5.196;2023-08-24T09:23:02;5.47;;;3.80;;
20734;SDS011;10528;52.124;5.196;2023-08-24T09:25:29;11.30;;;4.30;;
20734;SDS011;10528;52.124;5.196;2023-08-24T09:28:01;8.38;;;3.58;;
20734;SDS011;10528;52.124;5.196;2023-08-24T09:30:34;6.80;;;3.95;;
20734;SDS011;10528;52.124;5.196;2023-08-24T09:33:11;9.75;;;3.92;;
20734;SDS011;10528;52.124;5.196;2023-08-24T09:35:39;6.78;;;3.60;;
20734;SDS011;10528;52.124;5.196;2023-08-24T09:38:20;6.22;;;3.42;;
20734;SDS011;10528;52.124;5.196;2023-08-24T09:40:53;8.30;;;3.00;;
20734;SDS011;10528;52.124;5.196;2023-08-24T09:43:22;5.82;;;3.70;;
20734;SDS011;10528;52.124;5.196;2023-08-24T09:45:53;7.05;;;4.03;;
20734;SDS011;10528;52.124;5.196;2023-08-24T09:48:22;7.72;;;3.58;;
20734;SDS011;10528;52.124;5.196;2023-08-24T09:50:53;6.70;;;3.40;;
20734;SDS011;10528;52.124;5.196;2023-08-24T09:53:24;4.65;;;3.38;;
20734;SDS011;10528;52.124;5.196;2023-08-24T09:56:00;7.75;;;3.58;;
20734;SDS011;10528;52.124;5.196;2023-08-24T09:58:29;6.10;;;3.92;;
20734;SDS011;10528;52.124;5.196;2023-08-24T10:00:57;7.13;;;3.55;;
20734;SDS011;10528;52.124;5.196;2023-08-24T10:03:25;5.00;;;3.50;;
20734;SDS011;10528;52.124;5.196;2023-08-24T10:05:53;7.10;;;2.92;;
20734;SDS011;10528;52.124;5.196;2023-08-24T10:08:37;5.65;;;3.13;;
20734;SDS011;10528;52.124;5.196;2023-08-24T10:11:13;5.53;;;3.30;;
20734;SDS011;10528;52.124;5.196;2023-08-24T10:13:53;6.00;;;3.30;;
20734;SDS011;10528;52.124;5.196;2023-08-24T10:16:30;5.70;;;3.20;;
20734;SDS011;10528;52.124;5.196;2023-08-24T10:18:57;5.72;;;2.88;;
20734;SDS011;10528;52.124;5.196;2023-08-24T10:21:26;6.55;;;3.42;;
20734;SDS011;10528;52.124;5.196;2023-08-24T10:23:55;5.20;;;2.90;;
20734;SDS011;10528;52.124;5.196;2023-08-24T10:26:24;6.47;;;3.10;;
20734;SDS011;10528;52.124;5.196;2023-08-24T10:28:51;5.95;;;3.30;;
20734;SDS011;10528;52.124;5.196;2023-08-24T10:31:19;4.95;;;3.13;;
20734;SDS011;10528;52.124;5.196;2023-08-24T10:33:47;4.22;;;3.05;;
20734;SDS011;10528;52.124;5.196;2023-08-24T10:36:17;7.00;;;3.40;;
20734;SDS011;10528;52.124;5.196;2023-08-24T10:38:45;5.82;;;3.72;;
20734;SDS011;10528;52.124;5.196;2023-08-24T10:41:12;6.20;;;3.40;;
20734;SDS011;10528;52.124;5.196;2023-08-24T10:43:42;8.57;;;3.88;;
20734;SDS011;10528;52.124;5.196;2023-08-24T10:46:16;7.32;;;4.80;;
20734;SDS011;10528;52.124;5.196;2023-08-24T10:53:46;7.60;;;5.55;;
20734;SDS011;10528;52.124;5.196;2023-08-24T10:56:25;8.98;;;5.40;;
20734;SDS011;10528;52.124;5.196;2023-08-24T11:01:53;8.82;;;5.53;;
20734;SDS011;10528;52.124;5.196;2023-08-24T11:04:22;9.50;;;5.32;;
20734;SDS011;10528;52.124;5.196;2023-08-24T11:06:50;10.43;;;5.82;;
20734;SDS011;10528;52.124;5.196;2023-08-24T11:09:23;9.65;;;5.80;;
20734;SDS011;10528;52.124;5.196;2023-08-24T11:12:01;9.70;;;6.10;;
20734;SDS011;10528;52.124;5.196;2023-08-24T11:14:30;11.25;;;8.02;;
20734;SDS011;10528;52.124;5.196;2023-08-24T11:17:16;11.15;;;6.70;;
20734;SDS011;10528;52.124;5.196;2023-08-24T11:19:47;12.00;;;7.18;;
20734;SDS011;10528;52.124;5.196;2023-08-24T11:22:19;11.77;;;6.97;;
20734;SDS011;10528;52.124;5.196;2023-08-24T11:24:47;10.13;;;7.43;;
20734;SDS011;10528;52.124;5.196;2023-08-24T11:27:14;11.68;;;7.03;;
20734;SDS011;10528;52.124;5.196;2023-08-24T11:29:42;10.23;;;6.97;;
20734;SDS011;10528;52.124;5.196;2023-08-24T11:32:09;12.98;;;8.73;;
20734;SDS011;10528;52.124;5.196;2023-08-24T11:34:36;13.30;;;8.07;;
20734;SDS011;10528;52.124;5.196;2023-08-24T11:37:04;13.15;;;8.30;;
20734;SDS011;10528;52.124;5.196;2023-08-24T11:39:31;13.80;;;8.38;;
20734;SDS011;10528;52.124;5.196;2023-08-24T11:41:59;15.63;;;9.25;;
20734;SDS011;10528;52.124;5.196;2023-08-24T11:44:44;13.43;;;8.00;;
20734;SDS011;10528;52.124;5.196;2023-08-24T11:47:13;10.70;;;7.72;;
20734;SDS011;10528;52.124;5.196;2023-08-24T11:49:40;10.43;;;7.70;;
20734;SDS011;10528;52.124;5.196;2023-08-24T11:52:08;11.50;;;7.07;;
20734;SDS011;10528;52.124;5.196;2023-08-24T11:54:36;11.82;;;7.72;;
20734;SDS011;10528;52.124;5.196;2023-08-24T11:57:06;11.05;;;7.75;;
20734;SDS011;10528;52.124;5.196;2023-08-24T11:59:37;12.90;;;7.65;;
20734;SDS011;10528;52.124;5.196;2023-08-24T12:02:06;15.52;;;8.80;;
20734;SDS011;10528;52.124;5.196;2023-08-24T12:04:42;13.65;;;8.52;;
20734;SDS011;10528;52.124;5.196;2023-08-24T12:07:11;11.73;;;7.35;;
20734;SDS011;10528;52.124;5.196;2023-08-24T12:09:39;14.05;;;7.47;;
20734;SDS011;10528;52.124;5.196;2023-08-24T12:12:14;11.65;;;7.05;;
20734;SDS011;10528;52.124;5.196;2023-08-24T12:14:43;13.32;;;7.75;;
20734;SDS011;10528;52.124;5.196;2023-08-24T12:17:12;11.52;;;8.38;;
20734;SDS011;10528;52.124;5.196;2023-08-24T12:19:41;10.82;;;8.05;;
20734;SDS011;10528;52.124;5.196;2023-08-24T12:22:13;12.27;;;9.00;;
20734;SDS011;10528;52.124;5.196;2023-08-24T12:24:46;11.38;;;9.05;;
20734;SDS011;10528;52.124;5.196;2023-08-24T12:27:20;11.90;;;7.22;;
20734;SDS011;10528;52.124;5.196;2023-08-24T12:29:50;12.85;;;9.40;;
20734;SDS011;10528;52.124;5.196;2023-08-24T12:32:17;12.98;;;10.15;;
20734;SDS011;10528;52.124;5.196;2023-08-24T12:34:46;11.68;;;9.55;;
20734;SDS011;10528;52.124;5.196;2023-08-24T12:37:13;11.50;;;8.38;;
20734;SDS011;10528;52.124;5.196;2023-08-24T12:39:41;11.93;;;7.10;;
20734;SDS011;10528;52.124;5.196;2023-08-24T12:42:08;13.77;;;8.57;;
20734;SDS011;10528;52.124;5.196;2023-08-24T12:44:35;13.40;;;7.90;;
20734;SDS011;10528;52.124;5.196;2023-08-24T12:47:03;12.68;;;7.80;;
20734;SDS011;10528;52.124;5.196;2023-08-24T12:49:30;16.55;;;9.45;;
20734;SDS011;10528;52.124;5.196;2023-08-24T12:51:57;12.93;;;8.50;;
20734;SDS011;10528;52.124;5.196;2023-08-24T12:54:24;16.38;;;10.43;;
20734;SDS011;10528;52.124;5.196;2023-08-24T12:56:51;14.02;;;8.80;;
20734;SDS011;10528;52.124;5.196;2023-08-24T12:59:18;12.32;;;8.52;;
20734;SDS011;10528;52.124;5.196;2023-08-24T13:01:45;18.40;;;7.88;;
20734;SDS011;10528;52.124;5.196;2023-08-24T13:04:13;12.77;;;8.48;;
20734;SDS011;10528;52.124;5.196;2023-08-24T13:06:40;11.63;;;7.25;;
20734;SDS011;10528;52.124;5.196;2023-08-24T13:09:07;13.55;;;9.82;;
20734;SDS011;10528;52.124;5.196;2023-08-24T13:11:35;11.73;;;8.93;;
20734;SDS011;10528;52.124;5.196;2023-08-24T13:14:01;11.00;;;7.20;;
20734;SDS011;10528;52.124;5.196;2023-08-24T13:16:28;11.38;;;7.82;;
20734;SDS011;10528;52.124;5.196;2023-08-24T13:18:56;9.93;;;7.45;;
20734;SDS011;10528;52.124;5.196;2023-08-24T13:21:24;8.63;;;6.35;;
20734;SDS011;10528;52.124;5.196;2023-08-24T13:23:52;13.18;;;9.10;;
20734;SDS011;10528;52.124;5.196;2023-08-24T13:26:19;13.77;;;9.52;;
20734;SDS011;10528;52.124;5.196;2023-08-24T13:28:47;13.45;;;8.80;;
20734;SDS011;10528;52.124;5.196;2023-08-24T13:31:14;13.23;;;8.30;;
20734;SDS011;10528;52.124;5.196;2023-08-24T13:33:43;10.15;;;7.18;;
20734;SDS011;10528;52.124;5.196;2023-08-24T13:36:11;13.48;;;9.65;;
20734;SDS011;10528;52.124;5.196;2023-08-24T13:38:38;14.13;;;8.43;;
20734;SDS011;10528;52.124;5.196;2023-08-24T13:41:05;14.07;;;10.55;;
20734;SDS011;10528;52.124;5.196;2023-08-24T13:43:32;14.07;;;8.68;;
20734;SDS011;10528;52.124;5.196;2023-08-24T13:45:59;14.45;;;9.85;;
20734;SDS011;10528;52.124;5.196;2023-08-24T13:48:30;13.93;;;10.27;;
20734;SDS011;10528;52.124;5.196;2023-08-24T13:51:00;13.55;;;10.38;;
20734;SDS011;10528;52.124;5.196;2023-08-24T13:53:27;13.55;;;9.70;;
20734;SDS011;10528;52.124;5.196;2023-08-24T13:55:54;14.32;;;11.98;;
20734;SDS011;10528;52.124;5.196;2023-08-24T13:58:21;14.68;;;12.07;;
20734;SDS011;10528;52.124;5.196;2023-08-24T14:00:54;17.13;;;13.30;;
20734;SDS011;10528;52.124;5.196;2023-08-24T14:03:22;14.18;;;11.50;;
20734;SDS011;10528;52.124;5.196;2023-08-24T14:05:54;13.52;;;11.02;;
20734;SDS011;10528;52.124;5.196;2023-08-24T14:08:23;14.45;;;10.05;;
20734;SDS011;10528;52.124;5.196;2023-08-24T14:10:51;17.08;;;11.25;;
20734;SDS011;10528;52.124;5.196;2023-08-24T14:13:19;17.70;;;12.85;;
20734;SDS011;10528;52.124;5.196;2023-08-24T14:15:49;17.30;;;12.65;;
20734;SDS011;10528;52.124;5.196;2023-08-24T14:18:17;14.15;;;11.50;;
20734;SDS011;10528;52.124;5.196;2023-08-24T14:20:46;15.38;;;10.32;;
20734;SDS011;10528;52.124;5.196;2023-08-24T14:23:13;13.98;;;10.55;;
20734;SDS011;10528;52.124;5.196;2023-08-24T14:25:40;16.80;;;12.80;;
20734;SDS011;10528;52.124;5.196;2023-08-24T14:28:07;18.77;;;12.63;;
20734;SDS011;10528;52.124;5.196;2023-08-24T14:30:38;14.95;;;12.98;;
20734;SDS011;10528;52.124;5.196;2023-08-24T14:33:05;12.70;;;10.98;;
20734;SDS011;10528;52.124;5.196;2023-08-24T14:35:33;15.15;;;12.35;;
20734;SDS011;10528;52.124;5.196;2023-08-24T14:37:59;15.05;;;9.00;;
20734;SDS011;10528;52.124;5.196;2023-08-24T14:40:26;13.27;;;9.90;;
20734;SDS011;10528;52.124;5.196;2023-08-24T14:42:54;15.48;;;12.25;;
20734;SDS011;10528;52.124;5.196;2023-08-24T14:45:21;14.90;;;11.85;;
20734;SDS011;10528;52.124;5.196;2023-08-24T14:47:48;15.70;;;10.57;;
20734;SDS011;10528;52.124;5.196;2023-08-24T14:50:15;15.10;;;10.80;;
20734;SDS011;10528;52.124;5.196;2023-08-24T14:52:42;12.20;;;9.75;;
20734;SDS011;10528;52.124;5.196;2023-08-24T14:55:09;14.73;;;10.98;;
20734;SDS011;10528;52.124;5.196;2023-08-24T14:57:36;19.20;;;12.13;;
20734;SDS011;10528;52.124;5.196;2023-08-24T15:00:03;18.33;;;11.07;;
20734;SDS011;10528;52.124;5.196;2023-08-24T15:02:31;15.85;;;11.23;;
20734;SDS011;10528;52.124;5.196;2023-08-24T15:04:59;16.13;;;11.65;;